Latest Weather Observations for PORTABLE RFSNSW53

IDN60801

Issued at 2:04 am EDT Tuesday 26 January 2021 (issued every 10 minutes, with the page automatically refreshed every 10 minutes)

About weather observations | Map of weather stations | Latest weather observations for NSW | Other Formats
Station Details ID: 250096 Name: PORTABLE RFSNSW53 Lat: -34.44 Lon: 146.90 Height: 205.0 m

Portable automatic weather stations (PAWS) are operated by other organisations, such as Fire and Emergency Services, and are included here by agreement. Portable stations may be deployed to a location for a short period and their location may be subject to change without notice. Wind observations from these stations are provided from heights of either three (3) or ten (10) metres above ground level (AGL).

Data from the previous 72 hours. | See also: Recent months for locations in New South Wales
Date/Time
EDT
Temp
°C
App
Temp
°C
Dew
Point
°C
Rel
Hum
%
Delta-T
°C
Wind Press
QNH
hPa
Press
MSL
hPa
Rain since
9am
mm
Dir  Spd
km/h
Gust
km/h
Spd
kts
Gust
kts
26/01:50am 29.7 25.9 5.9 22 12.7 NNE 15 20 8 11 - - 0.0
26/01:40am 29.9 26.1 5.8 22 12.8 NNE 15 19 8 10 - - 0.0
26/01:30am 29.9 26.1 5.9 22 12.8 NNE 15 17 8 9 - - 0.0
26/01:20am 30.0 26.2 5.9 22 12.8 NNE 15 17 8 9 - - 0.0
26/01:10am 30.4 26.3 6.0 21 13.1 NNE 17 19 9 10 - - 0.0
26/01:00am 30.7 26.2 6.0 21 13.2 NNE 19 20 10 11 - - 0.0
26/12:50am 30.9 26.4 5.9 20 13.4 NNE 19 20 10 11 - - 0.0
26/12:40am 31.2 26.7 6.1 20 13.5 NNE 19 22 10 12 - - 0.0
26/12:30am 31.5 26.8 6.1 20 13.7 NNE 20 24 11 13 - - 0.0
26/12:20am 31.9 26.4 5.8 19 14.0 N 24 26 13 14 - - 0.0
26/12:10am 31.8 27.0 5.4 19 14.1 N 20 22 11 12 - - 0.0
26/12:00am 31.7 26.8 5.2 19 14.1 N 20 22 11 12 - - 0.0
 
Date/Time
EDT
Temp
°C
App
Temp
°C
Dew
Point
°C
Rel
Hum
%
Delta-T
°C
Wind Press
QNH
hPa
Press
MSL
hPa
Rain since
9am
mm
Dir  Spd
km/h
Gust
km/h
Spd
kts
Gust
kts
25/11:50pm 31.7 26.9 4.8 18 14.2 N 19 22 10 12 - - 0.0
25/11:40pm 31.8 27.1 5.2 18 14.2 N 19 20 10 11 - - 0.0
25/11:30pm 32.1 27.2 5.1 18 14.4 N 20 24 11 13 - - 0.0
25/11:20pm 32.4 27.2 5.3 18 14.5 N 22 24 12 13 - - 0.0
25/11:10pm 32.7 27.5 5.5 18 14.6 N 22 26 12 14 - - 0.0
25/11:00pm 32.8 27.6 5.6 18 14.6 N 22 24 12 13 - - 0.0
25/10:50pm 32.9 28.3 5.8 18 14.6 N 19 22 10 12 - - 0.0
25/10:40pm 32.5 28.3 5.9 19 14.4 N 17 19 9 10 - - 0.0
25/10:30pm 32.6 29.0 6.7 20 14.2 N 15 17 8 9 - - 0.0
25/10:20pm 32.8 29.2 6.9 20 14.2 NNE 15 17 8 9 - - 0.0
25/10:10pm 33.0 29.5 7.0 20 14.3 N 15 17 8 9 - - 0.0
25/10:00pm 33.2 29.2 6.8 19 14.5 NNE 17 19 9 10 - - 0.0
25/09:50pm 33.3 29.3 6.8 19 14.6 NNE 17 19 9 10 - - 0.0
25/09:40pm 33.4 29.4 6.6 19 14.7 N 17 19 9 10 - - 0.0
25/09:30pm 33.8 29.8 6.6 18 15.0 N 17 17 9 9 - - 0.0
25/09:20pm 34.3 30.3 6.7 18 15.2 N 17 19 9 10 - - 0.0
25/09:10pm 34.5 30.0 6.3 17 15.5 N 19 20 10 11 - - 0.0
25/09:00pm 34.5 30.4 6.2 17 15.5 N 17 19 9 10 - - 0.0
25/08:50pm 34.9 30.4 6.1 17 15.8 N 19 20 10 11 - - 0.0
25/08:40pm 35.2 30.5 6.1 16 16.0 N 20 24 11 13 - - 0.0
25/08:30pm 35.6 30.5 6.0 16 16.3 N 22 24 12 13 - - 0.0
25/08:20pm 35.9 30.1 6.1 16 16.4 N 26 30 14 16 - - 0.0
25/08:10pm 36.1 30.0 6.4 16 16.5 N 28 32 15 17 - - 0.0
25/08:00pm 36.3 31.2 6.0 15 16.7 N 22 26 12 14 - - 0.0
25/07:50pm 36.6 30.7 6.0 15 16.9 N 26 30 14 16 - - 0.0
25/07:40pm 36.7 30.8 6.0 15 17.0 N 26 33 14 18 - - 0.0
25/07:30pm 37.1 31.3 6.4 15 17.1 N 26 33 14 18 - - 0.0
25/07:20pm 37.4 31.6 6.1 14 17.4 N 26 32 14 17 - - 0.0
25/07:10pm 37.9 31.8 6.4 14 17.6 N 28 32 15 17 - - 0.0
25/07:00pm 37.9 32.6 6.6 14 17.6 N 24 30 13 16 - - 0.0
25/06:50pm 37.8 31.7 6.4 14 17.6 N 28 32 15 17 - - 0.0
25/06:40pm 39.2 32.6 6.2 13 18.5 N 30 33 16 18 - - 0.0
25/06:30pm 39.3 33.2 6.8 14 18.4 N 28 35 15 19 - - 0.0
25/06:20pm 39.7 33.3 7.0 13 18.6 N 30 37 16 20 - - 0.0
25/06:10pm 39.7 34.0 6.7 13 18.7 N 26 32 14 17 - - 0.0
25/06:00pm 38.8 32.3 6.7 14 18.1 N 30 33 16 18 - - 0.0
25/05:50pm 38.5 32.6 7.4 15 17.7 N 28 33 15 18 - - 0.0
25/05:40pm 39.1 32.8 7.2 14 18.2 N 30 33 16 18 - - 0.0
25/05:30pm 39.4 33.5 7.6 14 18.2 N 28 32 15 17 - - 0.0
25/05:20pm 39.0 33.5 7.6 15 18.0 N 26 35 14 19 - - 0.0
25/05:10pm 39.2 33.8 8.0 15 18.0 N 26 32 14 17 - - 0.0
25/05:00pm 39.4 34.0 8.1 15 18.1 N 26 30 14 16 - - 0.0
25/04:50pm 40.4 34.3 8.2 14 18.7 N 30 33 16 18 - - 0.0
25/04:40pm 41.2 35.9 8.6 14 19.1 N 26 30 14 16 - - 0.0
25/04:30pm 40.2 34.6 8.7 15 18.4 N 28 33 15 18 - - 0.0
25/04:20pm 40.8 35.2 8.6 14 18.8 N 28 35 15 19 - - 0.0
25/04:10pm 39.7 35.4 9.5 16 17.8 N 22 26 12 14 - - 0.0
25/04:00pm 39.5 34.5 9.7 16 17.6 NNE 26 33 14 18 - - 0.0
25/03:50pm 39.1 34.2 9.8 17 17.3 N 26 33 14 18 - - 0.0
25/03:40pm 39.4 34.5 10.0 17 17.5 N 26 30 14 16 - - 0.0
25/03:30pm 39.1 35.0 10.0 17 17.3 NNE 22 30 12 16 - - 0.0
25/03:20pm 39.3 35.6 10.3 17 17.3 N 20 28 11 15 - - 0.0
25/03:10pm 40.2 35.4 10.3 16 17.9 NNW 26 33 14 18 - - 0.0
25/03:00pm 40.6 36.4 9.8 16 18.3 N 22 35 12 19 - - 0.0
25/02:50pm 40.9 36.9 10.3 16 18.4 N 22 32 12 17 - - 0.0
25/02:40pm 39.4 35.9 10.3 17 17.4 N 19 28 10 15 - - 0.0
25/02:30pm 39.6 35.9 9.5 16 17.8 N 19 22 10 12 - - 0.0
25/02:20pm 40.4 36.8 9.8 16 18.2 N 19 22 10 12 - - 0.0
25/02:10pm 40.2 36.6 10.6 17 17.8 N 20 28 11 15 - - 0.0
25/02:00pm 40.9 36.8 10.0 15 18.5 NNW 22 32 12 17 - - 0.0
25/01:50pm 40.4 36.8 9.8 16 18.2 NNW 19 28 10 15 - - 0.0
25/01:40pm 40.2 36.1 10.2 16 17.9 N 22 30 12 16 - - 0.0
25/01:30pm 40.7 37.0 10.1 16 18.3 N 20 24 11 13 - - 0.0
25/01:20pm 40.9 36.8 10.2 16 18.4 NNW 22 28 12 15 - - 0.0
25/01:10pm 39.6 35.8 9.7 16 17.7 NW 20 26 11 14 - - 0.0
25/01:00pm 38.9 34.7 9.9 17 17.2 N 22 28 12 15 - - 0.0
25/12:50pm 39.8 35.7 10.1 17 17.7 NNW 22 32 12 17 - - 0.0
25/12:40pm 39.5 35.3 9.9 17 17.6 NW 22 32 12 17 - - 0.0
25/12:30pm 38.9 34.7 9.9 17 17.2 NNW 22 28 12 15 - - 0.0
25/12:20pm 38.9 35.0 9.6 17 17.3 N 20 28 11 15 - - 0.0
25/12:10pm 38.8 34.7 10.1 17 17.0 NNW 22 30 12 16 - - 0.0
25/12:00pm 38.4 33.9 10.2 18 16.7 NW 24 30 13 16 - - 0.0
25/11:50am 38.3 33.8 10.1 18 16.7 NW 24 28 13 15 - - 0.0
25/11:40am 38.1 34.1 10.4 19 16.5 NW 22 26 12 14 - - 0.0
25/11:30am 38.0 34.0 10.3 19 16.4 NNW 22 28 12 15 - - 0.0
25/11:20am 37.9 33.9 10.4 19 16.3 NNW 22 28 12 15 - - 0.0
25/11:10am 37.5 33.0 10.2 19 16.1 NW 24 28 13 15 - - 0.0
25/11:00am 37.2 33.0 9.9 19 16.0 NW 22 28 12 15 - - 0.0
25/10:50am 36.6 32.4 9.9 19 15.6 NNW 22 26 12 14 - - 0.0
25/10:40am 37.0 33.0 10.3 20 15.8 NW 22 28 12 15 - - 0.0
25/10:30am 36.8 32.2 9.8 19 15.8 NNW 24 28 13 15 - - 0.0
25/10:20am 36.6 32.4 9.9 19 15.6 NNW 22 28 12 15 - - 0.0
25/10:10am 36.3 32.1 9.6 19 15.6 NW 22 26 12 14 - - 0.0
25/10:00am 36.0 31.8 9.7 20 15.3 NNW 22 28 12 15 - - 0.0
25/09:50am 35.5 31.3 9.9 21 14.9 NNW 22 26 12 14 - - 0.0
25/09:40am 35.2 31.1 10.1 21 14.7 NNW 22 26 12 14 - - 0.0
25/09:30am 34.8 30.8 10.4 22 14.3 N 22 26 12 14 - - 0.0
25/09:20am 34.5 30.9 10.4 23 14.1 NNW 20 26 11 14 - - 0.0
25/09:10am 34.0 30.0 10.3 23 13.8 NNW 22 26 12 14 - - 0.0
25/09:00am 33.6 29.9 10.2 24 13.6 N 20 24 11 13 - - 0.0
25/08:50am 33.0 29.6 10.7 25 13.0 N 19 20 10 11 - - 0.0
25/08:40am 32.3 29.0 10.9 27 12.5 N 19 20 10 11 - - 0.0
25/08:30am 31.9 29.4 11.2 28 12.1 N 15 19 8 10 - - 0.0
25/08:20am 30.8 29.0 12.1 31 11.1 NE 13 15 7 8 - - 0.0
25/08:10am 30.6 28.7 11.8 31 11.1 NNE 13 15 7 8 - - 0.0
25/08:00am 30.0 27.7 11.7 32 10.7 NE 15 17 8 9 - - 0.0
25/07:50am 29.6 27.7 11.7 33 10.5 NNE 13 17 7 9 - - 0.0
25/07:40am 29.1 27.2 11.7 34 10.2 NNE 13 15 7 8 - - 0.0
25/07:30am 28.5 26.9 11.7 35 9.8 NNE 11 13 6 7 - - 0.0
25/07:20am 27.8 26.3 11.8 37 9.3 NE 11 11 6 6 - - 0.0
25/07:10am 26.8 25.2 11.6 38 8.8 NNE 11 11 6 6 - - 0.0
25/07:00am 26.2 24.6 11.7 40 8.4 NE 11 11 6 6 - - 0.0
25/06:50am 26.1 24.2 11.7 40 8.3 NE 13 13 7 7 - - 0.0
25/06:40am 25.9 23.9 11.6 40 8.2 NE 13 15 7 8 - - 0.0
25/06:30am 25.9 24.3 11.7 41 8.2 NE 11 11 6 6 - - 0.0
25/06:20am 26.1 24.5 11.6 40 8.3 NE 11 13 6 7 - - 0.0
25/06:10am 26.2 24.6 11.7 40 8.4 NE 11 13 6 7 - - 0.0
25/06:00am 26.4 24.4 11.6 39 8.5 NE 13 15 7 8 - - 0.0
25/05:50am 26.5 24.5 11.5 39 8.6 NE 13 15 7 8 - - 0.0
25/05:40am 26.5 24.9 11.5 39 8.6 NE 11 13 6 7 - - 0.0
25/05:30am 26.6 25.0 11.5 39 8.7 NE 11 11 6 6 - - 0.0
25/05:20am 26.9 24.9 11.5 38 8.9 NE 13 13 7 7 - - 0.0
25/05:10am 27.1 25.0 11.3 37 9.1 NE 13 15 7 8 - - 0.0
25/05:00am 27.1 25.1 11.4 37 9.0 NE 13 13 7 7 - - 0.0
25/04:50am 27.4 25.8 11.4 37 9.2 NE 11 13 6 7 - - 0.0
25/04:40am 27.7 25.6 11.2 35 9.5 NE 13 15 7 8 - - 0.0
25/04:30am 27.8 25.3 11.1 35 9.6 NE 15 17 8 9 - - 0.0
25/04:20am 27.9 25.4 11.0 35 9.7 NE 15 17 8 9 - - 0.0
25/04:10am 27.9 25.4 11.0 35 9.7 NE 15 17 8 9 - - 0.0
25/04:00am 28.1 25.1 10.8 34 9.9 NE 17 20 9 11 - - 0.0
25/03:50am 28.0 25.4 10.8 34 9.8 NE 15 19 8 10 - - 0.0
25/03:40am 28.3 25.7 10.6 33 10.1 NE 15 17 8 9 - - 0.0
25/03:30am 28.4 24.9 10.2 32 10.3 NE 19 19 10 10 - - 0.0
25/03:20am 28.0 25.2 10.0 32 10.2 NE 15 19 8 10 - - 0.0
25/03:10am 28.4 25.5 9.6 31 10.6 NE 15 17 8 9 - - 0.0
25/03:00am 28.5 25.5 9.2 30 10.8 NNE 15 17 8 9 - - 0.0
25/02:50am 28.7 25.2 8.8 28 11.1 NE 17 19 9 10 - - 0.0
25/02:40am 29.2 25.0 8.2 26 11.6 NE 20 24 11 13 - - 0.0
25/02:30am 29.0 24.8 7.6 26 11.7 NE 19 22 10 12 - - 0.0
25/02:20am 28.6 25.0 6.9 25 11.7 NE 15 17 8 9 - - 0.0
25/02:10am 27.4 23.1 5.4 24 11.5 ENE 17 20 9 11 - - 0.0
25/02:00am 24.3 21.4 4.6 28 9.9 NE 9 13 5 7 - - 0.0
25/01:50am 23.9 21.4 4.6 28 9.7 NE 7 9 4 5 - - 0.0
25/01:40am 24.1 21.5 3.3 25 10.2 NNE 6 7 3 4 - - 0.0
25/01:30am 23.9 22.1 3.3 26 10.1 NE 2 4 1 2 - - 0.0
25/01:20am 23.6 21.8 3.4 26 9.9 NE 2 2 1 1 - - 0.0
25/01:10am 23.6 21.8 3.7 27 9.8 NE 2 4 1 2 - - 0.0
25/01:00am 23.8 21.6 3.5 26 10.0 NE 4 4 2 2 - - 0.0
25/12:50am 23.9 22.1 3.5 26 10.0 NNE 2 2 1 1 - - 0.0
25/12:40am 24.7 22.6 3.7 25 10.4 N 4 4 2 2 - - 0.0
25/12:30am 26.2 24.1 3.7 23 11.3 NE 4 7 2 4 - - 0.0
25/12:20am 27.2 24.0 3.2 21 12.0 NE 9 11 5 6 - - 0.0
25/12:10am 27.7 24.5 3.1 20 12.3 NE 9 11 5 6 - - 0.0
25/12:00am 28.3 25.1 2.9 19 12.7 NE 9 9 5 5 - - 0.0
 
Date/Time
EDT
Temp
°C
App
Temp
°C
Dew
Point
°C
Rel
Hum
%
Delta-T
°C
Wind Press
QNH
hPa
Press
MSL
hPa
Rain since
9am
mm
Dir  Spd
km/h
Gust
km/h
Spd
kts
Gust
kts
24/11:50pm 29.0 25.3 2.6 18 13.2 NE 11 15 6 8 - - 0.0
24/11:40pm 28.0 24.1 1.4 18 13.0 NE 11 17 6 9 - - 0.0
24/11:30pm 26.6 24.3 2.7 21 11.8 NE 4 4 2 2 - - 0.0
24/11:20pm 26.4 24.0 2.4 21 11.8 NNE 4 4 2 2 - - 0.0
24/11:10pm 26.0 24.1 2.6 22 11.5 N 2 4 1 2 - - 0.0
24/11:00pm 25.7 24.2 2.8 22 11.3 CALM 0 2 0 1 - - 0.0
24/10:50pm 25.4 23.5 2.9 23 11.1 SSE 2 2 1 1 - - 0.0
24/10:40pm 25.4 24.0 3.3 24 10.9 CALM 0 2 0 1 - - 0.0
24/10:30pm 26.3 24.5 3.5 23 11.4 NNE 2 4 1 2 - - 0.0
24/10:20pm 26.9 24.4 3.7 22 11.7 NE 6 6 3 3 - - 0.0
24/10:10pm 26.7 24.4 2.5 21 11.9 NE 4 4 2 2 - - 0.0
24/10:00pm 26.7 24.5 3.1 21 11.7 N 4 4 2 2 - - 0.0
24/09:50pm 27.2 24.9 2.8 20 12.1 ENE 4 4 2 2 - - 0.0
24/09:40pm 27.2 25.3 3.1 21 12.0 NE 2 4 1 2 - - 0.0
24/09:30pm 28.8 26.9 3.0 19 13.0 NE 2 4 1 2 - - 0.0
24/09:20pm 30.0 28.2 3.3 18 13.6 NE 2 4 1 2 - - 0.0
24/09:10pm 30.4 28.0 2.1 16 14.2 NE 4 4 2 2 - - 0.0
24/09:00pm 30.5 28.4 4.0 18 13.7 NE 4 4 2 2 - - 0.0
24/08:50pm 31.9 30.2 3.8 17 14.6 ENE 2 4 1 2 - - 0.0
24/08:40pm 32.4 30.7 2.1 14 15.4 CALM 0 2 0 1 - - 0.0
24/08:30pm 33.3 31.5 1.3 13 16.1 CALM 0 2 0 1 - - 0.0
24/08:20pm 33.9 31.8 1.8 13 16.4 WNW 2 2 1 1 - - 0.0
24/08:10pm 34.5 32.3 1.3 12 16.8 W 2 2 1 1 - - 0.0
24/08:00pm 35.6 33.1 1.5 11 17.5 W 4 6 2 3 - - 0.0
24/07:50pm 36.3 33.3 1.0 11 18.0 W 6 6 3 3 - - 0.0
24/07:40pm 36.9 33.9 0.9 10 18.4 W 6 6 3 3 - - 0.0
24/07:30pm 37.5 34.3 0.8 10 18.8 W 7 9 4 5 - - 0.0
24/07:20pm 37.9 34.3 0.8 10 19.1 W 9 11 5 6 - - 0.0
24/07:10pm 38.4 34.4 0.7 9 19.4 W 11 13 6 7 - - 0.0
24/07:00pm 38.5 34.2 0.8 9 19.4 W 13 13 7 7 - - 0.0
24/06:50pm 38.3 34.3 0.6 9 19.3 W 11 11 6 6 - - 0.0
24/06:40pm 38.3 33.9 0.3 9 19.4 W 13 15 7 8 - - 0.0
24/06:30pm 38.5 33.7 0.2 9 19.6 W 15 19 8 10 - - 0.0
24/06:20pm 38.8 34.4 0.3 9 19.7 W 13 17 7 9 - - 0.0
24/06:10pm 39.5 34.7 0.4 9 20.1 WNW 15 19 8 10 - - 0.0
24/06:00pm 39.5 34.8 0.9 9 20.0 W 15 19 8 10 - - 0.0
24/05:50pm 39.7 35.8 0.9 9 20.2 NW 11 13 6 7 - - 0.0
24/05:40pm 39.3 34.6 0.7 9 20.0 W 15 19 8 10 - - 0.0
24/05:30pm 39.8 34.7 1.0 9 20.2 WNW 17 20 9 11 - - 0.0
24/05:20pm 41.5 36.1 1.0 8 21.3 WNW 19 24 10 13 - - 0.0
24/05:10pm 41.4 37.9 1.0 8 21.2 W 9 15 5 8 - - 0.0
24/05:00pm 40.0 35.7 0.8 9 20.4 W 13 19 7 10 - - 0.0
24/04:50pm 40.5 35.5 1.3 9 20.6 WNW 17 20 9 11 - - 0.0
24/04:40pm 40.5 35.8 1.1 8 20.6 W 15 22 8 12 - - 0.0
24/04:30pm 40.2 34.8 1.3 9 20.4 W 19 24 10 13 - - 0.0
24/04:20pm 39.8 36.0 1.6 9 20.1 W 11 17 6 9 - - 0.0
24/04:10pm 39.9 36.1 1.8 9 20.1 W 11 20 6 11 - - 0.0
24/04:00pm 40.7 36.2 2.2 9 20.5 W 15 20 8 11 - - 0.0
24/03:50pm 40.3 36.3 2.7 10 20.1 WSW 13 19 7 10 - - 0.0
24/03:40pm 40.3 34.4 1.9 9 20.3 WSW 22 28 12 15 - - 0.0
24/03:30pm 41.2 36.8 2.9 9 20.7 SW 15 20 8 11 - - 0.0
24/03:20pm 41.2 37.5 2.3 9 20.8 SSW 11 15 6 8 - - 0.0
24/03:10pm 40.8 35.4 2.5 9 20.5 W 20 22 11 12 - - 0.0
24/03:00pm 40.3 36.0 3.0 10 20.1 W 15 26 8 14 - - 0.0
24/02:50pm 40.3 36.4 3.3 10 20.0 WSW 13 22 7 12 - - 0.0
24/02:40pm 40.9 35.6 2.9 9 20.5 W 20 26 11 14 - - 0.0
24/02:30pm 40.5 35.1 1.5 9 20.5 WNW 19 26 10 14 - - 0.0
24/02:20pm 40.7 35.2 3.8 10 20.1 WNW 22 26 12 14 - - 0.0
24/02:10pm 41.1 36.3 4.8 11 20.1 WNW 19 24 10 13 - - 0.0
24/02:00pm 40.3 35.5 4.6 11 19.7 W 19 26 10 14 - - 0.0
24/01:50pm 40.1 36.3 5.7 12 19.2 W 15 22 8 12 - - 0.0
24/01:40pm 40.4 34.3 4.8 11 19.7 W 26 30 14 16 - - 0.0
24/01:30pm 40.5 35.2 5.1 11 19.7 W 22 26 12 14 - - 0.0
24/01:20pm 40.2 34.8 4.5 11 19.6 W 22 28 12 15 - - 0.0
24/01:10pm 39.5 34.3 5.3 12 19.0 W 22 30 12 16 - - 0.0
24/01:00pm 40.0 34.6 4.6 11 19.5 W 22 30 12 16 - - 0.0
24/12:50pm 39.7 34.4 5.2 12 19.1 W 22 28 12 15 - - 0.0
24/12:40pm 40.0 34.8 5.5 12 19.2 W 22 30 12 16 - - 0.0
24/12:30pm 40.2 35.3 5.3 12 19.4 WNW 20 26 11 14 - - 0.0
24/12:20pm 39.8 34.0 4.3 11 19.4 W 24 32 13 17 - - 0.0
24/12:10pm 38.4 32.3 4.9 12 18.4 W 26 32 14 17 - - 0.0
24/12:00pm 38.6 33.1 5.8 13 18.2 W 24 32 13 17 - - 0.0
24/11:50am 39.0 34.3 6.0 13 18.4 W 20 28 11 15 - - 0.0
24/11:40am 39.0 33.8 5.6 13 18.6 WNW 22 30 12 16 - - 0.0
24/11:30am 38.6 32.7 5.7 13 18.3 W 26 30 14 16 - - 0.0
24/11:20am 38.6 33.5 6.1 13 18.2 W 22 26 12 14 - - 0.0
24/11:10am 38.3 32.2 6.4 14 17.9 WNW 28 32 15 17 - - 0.0
24/11:00am 37.8 32.3 6.0 14 17.7 W 24 30 13 16 - - 0.0
24/10:50am 37.7 32.4 6.6 15 17.4 NW 24 28 13 15 - - 0.0
24/10:40am 37.5 32.3 7.2 15 17.1 NW 24 28 13 15 - - 0.0
24/10:30am 37.1 31.8 6.9 15 17.0 NW 24 30 13 16 - - 0.0
24/10:20am 36.4 30.8 7.1 16 16.4 WNW 26 32 14 17 - - 0.0
24/10:10am 36.2 30.6 7.1 16 16.3 NW 26 32 14 17 - - 0.0
24/10:00am 36.2 30.7 7.4 17 16.2 NW 26 30 14 16 - - 0.0
24/09:50am 36.1 30.9 7.3 17 16.2 NW 24 28 13 15 - - 0.0
24/09:40am 35.6 30.1 7.4 17 15.8 NW 26 30 14 16 - - 0.0
24/09:30am 35.6 30.4 7.4 17 15.8 NW 24 26 13 14 - - 0.0
24/09:20am 34.6 29.5 7.8 19 15.1 NNW 24 28 13 15 - - 0.0
24/09:10am 34.2 28.8 7.9 19 14.8 NNW 26 28 14 15 - - 0.0
24/09:00am 33.8 29.1 7.7 20 14.6 NNW 22 28 12 15 - - 0.0
24/08:50am 32.9 28.8 8.5 22 13.8 N 20 22 11 12 - - 0.0
24/08:40am 32.3 28.3 8.4 22 13.4 N 19 22 10 12 - - 0.0
24/08:30am 31.5 27.9 8.2 23 13.0 N 17 20 9 11 - - 0.0
24/08:20am 30.4 27.2 8.3 25 12.3 NNE 15 17 8 9 - - 0.0
24/08:10am 29.7 26.4 8.2 26 11.9 NNE 15 17 8 9 - - 0.0
24/08:00am 29.1 26.2 8.0 26 11.6 NNE 13 15 7 8 - - 0.0
24/07:50am 28.7 25.7 7.8 27 11.4 NNE 13 13 7 7 - - 0.0
24/07:40am 28.4 25.7 7.2 26 11.4 NNE 11 11 6 6 - - 0.0
24/07:30am 27.4 25.0 6.9 27 11.0 NNE 9 11 5 6 - - 0.0
24/07:20am 26.2 23.6 6.1 27 10.5 NNE 9 11 5 6 - - 0.0
24/07:10am 25.2 22.5 5.4 28 10.2 NE 9 11 5 6 - - 0.0
24/07:00am 24.1 21.2 4.6 28 9.8 NE 9 9 5 5 - - 0.0
24/06:50am 22.5 19.6 4.5 31 8.9 NE 9 9 5 5 - - 0.0
24/06:40am 22.0 18.9 3.8 30 8.9 NNE 9 9 5 5 - - 0.0
24/06:30am 20.4 17.4 1.7 29 8.7 N 7 7 4 4 - - 0.0
24/06:20am 19.9 16.9 0.7 27 8.7 N 6 6 3 3 - - 0.0
24/06:10am 19.3 16.3 0.5 28 8.4 NNE 6 6 3 3 - - 0.0
24/06:00am 18.6 16.0 0.9 30 8.0 NNE 4 6 2 3 - - 0.0
24/05:50am 18.6 16.5 1.4 31 7.8 NNE 2 4 1 2 - - 0.0
24/05:40am 18.7 16.1 1.0 30 8.0 NNE 4 6 2 3 - - 0.0
24/05:30am 19.1 16.4 0.6 29 8.3 N 4 6 2 3 - - 0.0
24/05:20am 19.4 16.1 -0.1 27 8.6 NNE 7 9 4 5 - - 0.0
24/05:10am 19.2 16.1 0.0 27 8.5 NE 6 7 3 4 - - 0.0
24/05:00am 19.6 17.4 0.9 28 8.5 ESE 2 4 1 2 - - 0.0
24/04:50am 20.0 16.7 -1.1 24 9.2 ENE 6 9 3 5 - - 0.0
24/04:40am 20.1 16.3 -1.1 24 9.3 NE 9 9 5 5 - - 0.0
24/04:30am 19.4 16.0 -1.9 23 9.1 NNE 6 7 3 4 - - 0.0
24/04:20am 20.2 17.9 0.6 27 8.9 N 2 6 1 3 - - 0.0
24/04:10am 22.5 19.4 0.0 22 10.3 N 6 7 3 4 - - 0.0
24/04:00am 23.6 20.0 -2.1 18 11.4 NE 7 7 4 4 - - 0.0
24/03:50am 24.2 20.6 -2.1 17 11.7 NNE 7 9 4 5 - - 0.0
24/03:40am 23.1 18.3 -2.9 17 11.3 NE 13 13 7 7 - - 0.0
24/03:30am 20.0 15.6 -2.8 21 9.6 NE 11 13 6 7 - - 0.0
24/03:20am 19.6 16.4 0.5 28 8.6 NE 7 9 4 5 - - 0.0
24/03:10am 19.7 16.5 -0.3 26 8.9 NE 6 6 3 3 - - 0.0
24/03:00am 20.4 17.9 1.3 28 8.8 NE 4 4 2 2 - - 0.0
24/02:50am 20.4 18.4 2.4 30 8.5 E 2 2 1 1 - - 0.0
24/02:40am 19.9 17.1 -0.5 25 9.0 SSW 4 4 2 2 - - 0.0
24/02:30am 19.9 17.0 -0.8 25 9.1 S 4 6 2 3 - - 0.0
24/02:20am 19.4 16.5 -1.1 25 8.9 SE 4 6 2 3 - - 0.0
24/02:10am 18.2 15.0 -0.7 28 8.2 S 6 9 3 5 - - 0.0
24/02:00am 18.5 15.4 0.1 29 8.1 WSW 6 9 3 5 - - 0.0
24/01:50am 18.9 16.1 -0.3 27 8.4 WNW 4 4 2 2 - - 0.0
24/01:40am 18.7 16.3 -0.5 27 8.4 NNW 2 4 1 2 - - 0.0
24/01:30am 18.4 16.0 -0.2 28 8.2 N 2 4 1 2 - - 0.0
24/01:20am 19.2 16.9 0.6 28 8.3 NNW 2 4 1 2 - - 0.0
24/01:10am 21.9 18.6 -1.4 21 10.3 NNE 6 7 3 4 - - 0.0
24/01:00am 22.1 19.1 -2.1 19 10.6 NNW 4 4 2 2 - - 0.0
24/12:50am 21.4 18.0 -2.3 20 10.2 NNE 6 7 3 4 - - 0.0
24/12:40am 21.3 18.0 -0.9 22 9.8 NNE 6 7 3 4 - - 0.0
24/12:30am 21.0 18.5 -1.2 22 9.8 NNW 2 4 1 2 - - 0.0
24/12:20am 21.0 18.2 -0.6 23 9.6 WNW 4 4 2 2 - - 0.0
24/12:10am 21.3 18.4 -1.3 22 9.9 N 4 6 2 3 - - 0.0
24/12:00am 21.6 19.2 -0.5 23 9.9 WSW 2 2 1 1 - - 0.0
 
Date/Time
EDT
Temp
°C
App
Temp
°C
Dew
Point
°C
Rel
Hum
%
Delta-T
°C
Wind Press
QNH
hPa
Press
MSL
hPa
Rain since
9am
mm
Dir  Spd
km/h
Gust
km/h
Spd
kts
Gust
kts
23/11:50pm 22.4 19.9 -0.8 21 10.4 NW 2 2 1 1 - - 0.0
23/11:40pm 22.6 20.0 -1.4 20 10.7 NE 2 4 1 2 - - 0.0
23/11:30pm 22.5 20.7 3.3 28 9.3 SE 2 4 1 2 - - 0.0
23/11:20pm 22.7 20.1 -1.5 20 10.7 S 2 2 1 1 - - 0.0
23/11:10pm 23.0 20.8 -1.3 20 10.8 CALM 0 2 0 1 - - 0.0
23/11:00pm 23.0 20.4 -1.5 19 10.9 S 2 4 1 2 - - 0.0
23/10:50pm 24.4 21.2 -0.8 19 11.5 SSE 6 6 3 3 - - 0.0
23/10:40pm 25.2 21.7 -2.7 15 12.4 SE 6 6 3 3 - - 0.0
23/10:30pm 23.6 20.0 -2.2 18 11.4 SE 7 7 4 4 - - 0.0
23/10:20pm 23.8 20.3 -1.7 18 11.4 SSE 7 7 4 4 - - 0.0
23/10:10pm 24.7 21.1 -2.0 17 11.9 SSE 7 7 4 4 - - 0.0
23/10:00pm 25.2 21.9 -1.6 17 12.1 SSE 6 7 3 4 - - 0.0
23/09:50pm 27.4 23.8 -3.3 13 13.7 SSE 6 7 3 4 - - 0.0
23/09:40pm 27.3 23.9 -2.4 14 13.4 SSE 6 7 3 4 - - 0.0
23/09:30pm 29.2 25.7 -2.5 12 14.5 SSE 6 7 3 4 - - 0.0
23/09:20pm 30.3 26.6 -3.2 11 15.3 SSE 7 7 4 4 - - 0.0
23/09:10pm 31.3 27.7 -3.4 10 15.9 SE 6 7 3 4 - - 0.0
23/09:00pm 31.5 27.7 -3.6 10 16.1 SSE 7 7 4 4 - - 0.0
23/08:50pm 31.2 27.4 -4.0 10 16.0 SSE 7 7 4 4 - - 0.0
23/08:40pm 31.0 27.4 -3.9 10 15.8 SSE 6 6 3 3 - - 0.0
23/08:30pm 31.7 28.1 -3.8 10 16.2 SSW 6 9 3 5 - - 0.0
23/08:20pm 33.3 29.1 -3.8 9 17.2 SSW 9 11 5 6 - - 0.0
23/08:10pm 34.6 30.4 -4.0 8 18.0 SW 9 11 5 6 - - 0.0
23/08:00pm 35.6 30.6 -4.0 8 18.6 SW 13 13 7 7 - - 0.0
23/07:50pm 36.6 32.0 -3.9 7 19.2 SW 11 11 6 6 - - 0.0
23/07:40pm 37.3 32.3 -4.1 7 19.6 SW 13 15 7 8 - - 0.0
23/07:30pm 37.8 33.2 -4.0 7 19.9 SW 11 13 6 7 - - 0.0
23/07:20pm 38.0 32.6 -4.4 6 20.1 SW 15 19 8 10 - - 0.0
23/07:10pm 38.4 33.0 -4.1 6 20.3 WSW 15 17 8 9 - - 0.0
23/07:00pm 38.7 33.3 -4.3 6 20.5 SW 15 19 8 10 - - 0.0
23/06:50pm 39.1 34.1 -4.1 6 20.7 SSW 13 19 7 10 - - 0.0
23/06:40pm 39.2 34.2 -4.3 6 20.8 SW 13 19 7 10 - - 0.0
23/06:30pm 39.3 33.9 -4.2 6 20.9 SSW 15 20 8 11 - - 0.0
23/06:20pm 39.5 33.8 -4.1 6 21.0 WSW 17 22 9 12 - - 0.0
23/06:10pm 40.0 35.8 -4.3 6 21.3 S 9 19 5 10 - - 0.0
23/06:00pm 39.9 35.6 -4.5 6 21.3 W 9 13 5 7 - - 0.0
23/05:50pm 40.1 35.1 -4.5 6 21.4 SW 13 20 7 11 - - 0.0
23/05:40pm 40.0 34.6 -4.5 6 21.3 W 15 20 8 11 - - 0.0
23/05:30pm 40.0 35.3 -4.8 6 21.4 WSW 11 17 6 9 - - 0.0
23/05:20pm 40.2 35.1 -4.9 6 21.5 W 13 24 7 13 - - 0.0
23/05:10pm 40.1 36.2 -5.0 6 21.5 W 7 15 4 8 - - 0.0
23/05:00pm 39.9 35.6 -5.1 6 21.4 WSW 9 15 5 8 - - 0.0
23/04:50pm 40.2 34.4 -4.9 6 21.5 W 17 22 9 12 - - 0.0
23/04:40pm 40.4 35.0 -4.9 5 21.7 W 15 24 8 13 - - 0.0
23/04:30pm 40.0 35.3 -4.9 6 21.4 W 11 20 6 11 - - 0.0
23/04:20pm 40.6 35.9 -4.6 6 21.7 WNW 11 20 6 11 - - 0.0
23/04:10pm 40.2 34.8 -4.8 6 21.5 W 15 20 8 11 - - 0.0
23/04:00pm 40.2 34.4 -5.0 5 21.5 WNW 17 30 9 16 - - 0.0
23/03:50pm 40.2 35.2 -4.6 6 21.5 W 13 17 7 9 - - 0.0
23/03:40pm 40.0 34.9 -4.8 6 21.4 NW 13 19 7 10 - - 0.0
23/03:30pm 40.3 33.6 -4.6 6 21.5 W 22 26 12 14 - - 0.0
23/03:20pm 40.5 36.6 -4.7 6 21.7 NW 7 13 4 7 - - 0.0
23/03:10pm 39.9 33.7 -4.4 6 21.3 W 19 30 10 16 - - 0.0
23/03:00pm 40.2 35.5 -5.3 5 21.6 SSW 11 19 6 10 - - 0.0
23/02:50pm 39.6 35.0 -4.3 6 21.1 WSW 11 17 6 9 - - 0.0
23/02:40pm 39.6 33.7 -5.2 6 21.2 W 17 28 9 15 - - 0.0
23/02:30pm 39.7 34.6 -5.4 5 21.3 W 13 19 7 10 - - 0.0
23/02:20pm 39.8 33.5 -5.4 5 21.4 W 19 28 10 15 - - 0.0
23/02:10pm 39.5 34.0 -5.7 5 21.2 W 15 20 8 11 - - 0.0
23/02:00pm 39.2 33.3 -5.6 6 21.0 W 17 24 9 13 - - 0.0
23/01:50pm 39.5 35.1 -5.4 6 21.2 NW 9 26 5 14 - - 0.0
23/01:40pm 39.3 33.4 -5.5 6 21.1 NW 17 26 9 14 - - 0.0
23/01:30pm 39.3 34.2 -5.0 6 21.0 WNW 13 19 7 10 - - 0.0
23/01:20pm 39.1 33.6 -5.7 6 21.0 W 15 22 8 12 - - 0.0
23/01:10pm 38.8 33.0 -4.9 6 20.7 NW 17 26 9 14 - - 0.0
23/01:00pm 38.8 33.0 -5.1 6 20.7 NW 17 22 9 12 - - 0.0
23/12:50pm 38.7 32.5 -5.3 6 20.7 WNW 19 24 10 13 - - 0.0
23/12:40pm 38.7 33.6 -5.0 6 20.6 WNW 13 19 7 10 - - 0.0
23/12:30pm 38.6 32.7 -5.3 6 20.6 W 17 22 9 12 - - 0.0
23/12:20pm 38.0 33.0 -4.3 7 20.1 W 13 20 7 11 - - 0.0
23/12:10pm 38.0 33.3 -5.1 6 20.2 NW 11 15 6 8 - - 0.0
23/12:00pm 37.9 33.2 -5.5 6 20.2 NNW 11 17 6 9 - - 0.0
23/11:50am 37.6 33.3 -4.6 7 19.9 NW 9 17 5 9 - - 0.0
23/11:40am 37.2 32.1 -5.3 6 19.7 NW 13 19 7 10 - - 0.0
23/11:30am 36.8 32.2 -3.7 7 19.2 NW 11 17 6 9 - - 0.0
23/11:20am 36.9 32.6 -5.1 7 19.5 NNW 9 15 5 8 - - 0.0
23/11:10am 36.3 32.6 -4.2 7 19.0 N 6 11 3 6 - - 0.0
23/11:00am 35.8 32.0 -3.5 8 18.6 NW 7 13 4 7 - - 0.0
23/10:50am 35.5 31.3 -3.6 8 18.4 NNW 9 13 5 7 - - 0.0
23/10:40am 35.1 31.8 -1.6 9 17.8 NNE 6 9 3 5 - - 0.0
23/10:30am 34.3 31.1 -0.4 11 17.1 N 6 7 3 4 - - 0.0
23/10:20am 33.6 30.4 -0.6 11 16.7 NW 6 7 3 4 - - 0.0
23/10:10am 32.7 29.5 -0.6 12 16.2 N 6 7 3 4 - - 0.0
23/10:00am 32.3 29.1 -0.7 12 16.0 N 6 7 3 4 - - 0.0
23/09:50am 31.6 28.4 -0.3 13 15.5 N 6 9 3 5 - - 0.0
23/09:40am 30.9 27.4 -1.0 12 15.2 N 7 11 4 6 - - 0.0
23/09:30am 30.3 26.4 -1.3 13 14.9 N 9 11 5 6 - - 0.0
23/09:20am 29.9 25.6 -1.4 13 14.7 NNE 11 13 6 7 - - 0.0
23/09:10am 29.1 25.4 -0.2 15 14.0 NNE 9 11 5 6 - - 0.0
23/09:00am 28.4 24.7 0.0 16 13.5 NNE 9 11 5 6 - - 0.0
23/08:50am 27.8 24.2 0.3 16 13.1 NNE 9 11 5 6 - - 0.0
23/08:40am 27.1 23.3 1.6 19 12.4 NE 11 13 6 7 - - 0.0
23/08:30am 26.7 23.3 1.7 19 12.1 NE 9 11 5 6 - - 0.0
23/08:20am 26.2 22.2 0.6 18 12.1 NE 11 13 6 7 - - 0.0
23/08:10am 25.7 21.6 -0.4 18 12.1 NE 11 13 6 7 - - 0.0
23/08:00am 25.0 21.2 -0.7 18 11.8 NE 9 11 5 6 - - 0.0
23/07:50am 24.0 20.6 -0.8 19 11.3 NE 7 9 4 5 - - 0.0
23/07:40am 22.4 19.7 0.6 23 10.0 NNE 4 6 2 3 - - 0.0
23/07:30am 20.8 17.7 0.3 25 9.3 NNE 6 7 3 4 - - 0.0
23/07:20am 19.2 16.7 1.4 30 8.1 NE 4 6 2 3 - - 0.0
23/07:10am 18.0 15.9 2.0 34 7.3 NE 2 2 1 1 - - 0.0
23/07:00am 17.7 15.3 2.0 35 7.2 ESE 4 6 2 3 - - 0.0
23/06:50am 16.8 13.6 -0.3 31 7.4 SSE 6 6 3 3 - - 0.0
23/06:40am 15.5 12.8 0.5 36 6.5 SSE 4 6 2 3 - - 0.0
23/06:30am 14.8 12.1 0.3 37 6.2 SSW 4 6 2 3 - - 0.0
23/06:20am 14.3 11.3 0.7 39 5.9 SW 6 6 3 3 - - 0.0
23/06:10am 14.5 11.8 0.4 38 6.0 SW 4 6 2 3 - - 0.0
23/06:00am 13.9 11.6 0.4 39 5.8 WSW 2 2 1 1 - - 0.0
23/05:50am 13.7 11.5 0.9 41 5.5 WSW 2 4 1 2 - - 0.0
23/05:40am 14.1 12.0 1.4 42 5.5 NNW 2 4 1 2 - - 0.0
23/05:30am 16.5 14.0 1.5 36 6.7 NE 4 6 2 3 - - 0.0
23/05:20am 17.9 14.6 0.4 30 7.7 NE 7 7 4 4 - - 0.0
23/05:10am 17.6 14.3 0.2 31 7.6 NE 7 9 4 5 - - 0.0
23/05:00am 17.7 13.6 -0.3 29 7.8 NE 11 13 6 7 - - 0.0
23/04:50am 16.9 12.7 -0.7 30 7.5 NE 11 17 6 9 - - 0.0
23/04:40am 14.9 12.4 -0.7 34 6.6 SE 2 2 1 1 - - 0.0
23/04:30am 15.4 13.1 0.5 36 6.5 WNW 2 2 1 1 - - 0.0
23/04:20am 15.7 13.3 -0.1 34 6.8 N 2 4 1 2 - - 0.0
23/04:10am 15.3 12.9 -0.6 33 6.7 N 2 2 1 1 - - 0.0
23/04:00am 15.4 13.2 0.9 37 6.3 SW 2 4 1 2 - - 0.0
23/03:50am 16.8 14.2 1.2 35 6.9 N 4 6 2 3 - - 0.0
23/03:40am 17.1 14.5 1.1 34 7.1 NNE 4 4 2 2 - - 0.0
23/03:30am 16.6 14.3 0.1 32 7.2 N 2 2 1 1 - - 0.0
23/03:20am 16.6 14.2 -0.1 32 7.2 SSW 2 2 1 1 - - 0.0
23/03:10am 15.8 13.4 -0.3 33 6.9 S 2 6 1 3 - - 0.0
23/03:00am 16.3 14.1 0.9 35 6.8 SW 2 6 1 3 - - 0.0
23/02:50am 17.0 14.7 0.7 33 7.2 N 2 2 1 1 - - 0.0
23/02:40am 17.2 14.8 -0.3 30 7.6 NNE 2 2 1 1 - - 0.0
23/02:30am 17.2 14.9 0.1 31 7.5 N 2 2 1 1 - - 0.0
23/02:20am 17.6 15.6 0.2 31 7.6 CALM 0 0 0 0 - - 0.0
23/02:10am 17.7 15.8 0.3 31 7.7 CALM 0 2 0 1 - - 0.0

Other formats

Comma delimited format used in spreadsheet applications
http://www.bom.gov.au/fwo/IDN60801/IDN60801.99792.axf

JavaScript Object Notation format (JSON) in row-major order
http://www.bom.gov.au/fwo/IDN60801/IDN60801.99792.json

Data quality

Most of these data are generated automatically and are frequently updated. Quality checks on data are not normally performed. It is possible for incorrect values to appear. Refer to information at About Latest Weather Observations and please check the disclaimer before using these data.